Time;durP1;ratioP1;P1;durP2;ratioP2;P2;SDS_P1;SDS_P2;PMS_P1;PMS_P2;Temp;Humidity;BMP_temperature;BMP_pressure;BME280_temperature;BME280_humidity;BME280_pressure;Samples;Min_cycle;Max_cycle;Signal;HPM_P1;HPM_P2
2023/08/23 00:01:03;;;;;;;12.50;10.70;;;;;;;25.74;58.19;97216.75;5065494;28;20200;-72
2023/08/23 00:03:48;;;;;;;14.13;11.07;;;;;;;25.35;59.13;97215.53;5067320;28;20188;-77
2023/08/23 00:06:15;;;;;;;15.23;11.90;;;;;;;25.13;59.69;97212.56;5066513;28;20232;-76
2023/08/23 00:08:42;;;;;;;13.40;11.83;;;;;;;24.92;60.64;97213.75;5066088;28;20185;-82
2023/08/23 00:11:09;;;;;;;12.20;9.80;;;;;;;24.99;60.62;97211.34;5066990;28;20621;-71
2023/08/23 00:13:36;;;;;;;12.70;11.30;;;;;;;24.72;61.12;97212.25;5065382;28;20211;-74
2023/08/23 00:16:03;;;;;;;13.50;11.40;;;;;;;24.70;61.39;97216.88;5065808;28;20204;-72
2023/08/23 00:18:31;;;;;;;15.10;11.17;;;;;;;24.56;62.45;97217.41;5065049;28;20199;-77
2023/08/23 00:20:57;;;;;;;12.57;11.13;;;;;;;24.48;62.68;97220.00;5067321;28;20732;-77
2023/08/23 00:23:24;;;;;;;14.20;11.60;;;;;;;24.40;62.12;97211.16;5066209;28;20189;-74
2023/08/23 00:25:51;;;;;;;14.33;11.80;;;;;;;24.21;62.97;97204.19;5067209;28;20187;-72
2023/08/23 00:28:21;;;;;;;13.33;11.50;;;;;;;24.18;63.30;97210.59;5069535;28;20830;-73
2023/08/23 00:30:52;;;;;;;12.47;11.10;;;;;;;24.30;63.13;97218.34;5069072;28;20195;-75
2023/08/23 00:33:20;;;;;;;13.87;11.97;;;;;;;24.30;63.56;97221.78;5069528;28;20199;-80
2023/08/23 00:35:48;;;;;;;13.53;11.47;;;;;;;24.13;63.89;97214.69;5069032;28;20241;-71
2023/08/23 00:38:15;;;;;;;13.20;11.80;;;;;;;23.85;65.20;97219.13;5069458;28;20199;-76
2023/08/23 00:40:43;;;;;;;13.70;11.90;;;;;;;23.88;64.83;97218.84;5069877;28;20210;-71
2023/08/23 00:43:10;;;;;;;13.60;12.03;;;;;;;23.90;64.56;97211.59;5069582;28;20192;-76
2023/08/23 00:45:39;;;;;;;16.63;13.17;;;;;;;24.15;63.55;97212.72;5069310;28;20245;-71
2023/08/23 00:48:08;;;;;;;15.73;11.73;;;;;;;24.15;63.50;97221.47;5068668;28;20605;-81
2023/08/23 00:50:36;;;;;;;16.27;12.83;;;;;;;24.12;63.26;97220.94;5069301;28;20184;-77
2023/08/23 00:53:06;;;;;;;17.53;11.30;;;;;;;24.03;63.72;97212.06;5067698;28;20190;-76
2023/08/23 00:55:35;;;;;;;13.63;11.67;;;;;;;24.13;63.61;97225.28;5069313;28;20223;-72
2023/08/23 00:58:04;;;;;;;15.13;11.73;;;;;;;24.20;62.84;97227.16;5068539;28;20627;-78
2023/08/23 01:00:31;;;;;;;13.30;11.40;;;;;;;24.04;62.87;97203.16;5068167;28;20203;-72
2023/08/23 01:02:59;;;;;;;13.63;12.07;;;;;;;24.06;62.93;97203.00;5070272;28;20194;-73
2023/08/23 01:06:02;;;;;;;13.73;11.80;;;;;;;24.31;62.48;97234.06;5067329;28;20189;-86
2023/08/23 01:08:42;;;;;;;14.93;11.83;;;;;;;24.27;62.34;97226.56;5070586;28;20278;-86
2023/08/23 01:11:36;;;;;;;15.47;13.00;;;;;;;24.05;63.21;97223.34;5069899;28;20194;-71
2023/08/23 01:14:05;;;;;;;13.30;11.90;;;;;;;23.91;63.64;97231.75;5068323;28;20186;-72
2023/08/23 01:16:34;;;;;;;15.57;12.97;;;;;;;23.94;62.97;97215.59;5068802;28;20189;-82
2023/08/23 01:19:09;;;;;;;16.67;12.23;;;;;;;23.79;63.81;97218.88;5050523;28;20590;-78
2023/08/23 01:21:38;;;;;;;16.50;12.03;;;;;;;23.80;63.13;97218.72;5068354;28;20201;-82
2023/08/23 01:24:09;;;;;;;15.53;13.13;;;;;;;23.39;63.96;97171.59;5067893;28;20244;-75
2023/08/23 01:26:39;;;;;;;16.17;12.50;;;;;;;23.81;63.83;97219.56;5068282;28;20226;-84
2023/08/23 01:29:07;;;;;;;16.27;12.83;;;;;;;23.66;63.75;97208.63;5068614;28;20718;-83
2023/08/23 01:31:39;;;;;;;14.37;12.30;;;;;;;23.63;64.28;97222.16;5066636;28;20195;-83
2023/08/23 01:34:25;;;;;;;16.03;11.47;;;;;;;23.90;63.02;97221.31;5069540;28;20656;-81
2023/08/23 01:36:54;;;;;;;14.03;12.53;;;;;;;23.82;63.61;97210.66;5068572;28;20225;-85
2023/08/23 01:39:24;;;;;;;15.43;11.87;;;;;;;23.74;63.28;97214.00;5067274;28;20194;-71
2023/08/23 01:41:52;;;;;;;14.33;12.10;;;;;;;23.89;63.51;97217.00;5069440;28;20195;-80
2023/08/23 01:44:20;;;;;;;18.30;12.93;;;;;;;23.86;62.97;97219.97;5067835;28;20207;-73
2023/08/23 01:46:47;;;;;;;16.17;11.90;;;;;;;23.90;62.64;97218.69;5069320;28;20823;-83
2023/08/23 01:49:14;;;;;;;14.77;11.63;;;;;;;23.84;63.23;97214.81;5066280;28;20589;-85
2023/08/23 01:51:41;;;;;;;12.80;11.50;;;;;;;23.77;63.02;97211.09;5068171;28;20189;-73
2023/08/23 01:54:08;;;;;;;13.60;12.17;;;;;;;23.71;63.91;97214.31;5068286;28;21088;-85
2023/08/23 01:56:35;;;;;;;15.13;11.83;;;;;;;23.26;64.76;97205.44;5066975;28;20186;-83
2023/08/23 01:59:02;;;;;;;15.00;12.40;;;;;;;23.34;64.88;97192.38;5069263;28;20277;-86
2023/08/23 02:01:31;;;;;;;14.13;11.83;;;;;;;23.42;64.35;97192.47;5065911;28;20594;-85
2023/08/23 02:03:58;;;;;;;17.70;11.97;;;;;;;23.67;63.96;97197.09;5068893;28;20214;-80
2023/08/23 02:06:25;;;;;;;13.50;11.93;;;;;;;23.67;63.80;97210.31;5065785;28;20724;-83
2023/08/23 02:08:52;;;;;;;12.83;11.47;;;;;;;23.48;64.37;97217.47;5068775;28;20189;-77
2023/08/23 02:11:19;;;;;;;14.40;11.47;;;;;;;23.40;64.42;97207.63;5068100;28;20286;-85
2023/08/23 02:13:46;;;;;;;15.00;12.40;;;;;;;23.36;64.85;97216.84;5068144;28;20251;-80
2023/08/23 02:16:13;;;;;;;15.10;12.20;;;;;;;22.87;64.96;97136.03;5068879;28;20201;-80
2023/08/23 02:18:40;;;;;;;14.80;12.10;;;;;;;23.42;64.49;97208.31;5065952;28;20653;-83
2023/08/23 02:21:07;;;;;;;14.10;11.63;;;;;;;23.21;64.67;97194.44;5067868;28;20183;-76
2023/08/23 02:23:34;;;;;;;13.20;11.40;;;;;;;23.15;65.32;97208.25;5067604;28;20206;-83
2023/08/23 02:26:01;;;;;;;13.80;11.77;;;;;;;23.38;64.56;97209.59;5067465;28;20584;-85
2023/08/23 02:28:28;;;;;;;13.90;11.83;;;;;;;23.41;65.02;97211.97;5066237;28;20593;-85
2023/08/23 02:31:01;;;;;;;14.10;10.83;;;;;;;22.92;64.97;97167.28;5067798;28;20195;-81
2023/08/23 02:33:29;;;;;;;14.07;11.47;;;;;;;23.28;64.92;97208.75;5050499;28;20677;-71
2023/08/23 02:35:56;;;;;;;15.63;12.87;;;;;;;23.31;64.88;97200.53;5065313;28;20179;-71
2023/08/23 02:38:23;;;;;;;16.40;12.33;;;;;;;23.32;64.72;97191.66;5067243;28;20183;-71
2023/08/23 02:40:50;;;;;;;14.97;12.03;;;;;;;23.43;64.03;97196.78;5065266;28;20193;-71
2023/08/23 02:43:18;;;;;;;13.70;10.90;;;;;;;23.53;64.61;97205.50;5067226;28;20193;-70
2023/08/23 02:45:44;;;;;;;15.60;12.47;;;;;;;23.52;64.50;97209.13;5065939;28;20194;-70
2023/08/23 02:48:11;;;;;;;13.77;11.00;;;;;;;23.43;65.09;97216.09;5065776;28;20304;-70
2023/08/23 02:50:39;;;;;;;13.13;11.60;;;;;;;23.36;65.52;97206.25;5050709;28;20204;-71
2023/08/23 02:53:06;;;;;;;15.27;11.57;;;;;;;23.35;65.53;97199.28;5065211;28;20184;-75
2023/08/23 02:55:37;;;;;;;13.93;11.60;;;;;;;23.42;65.02;97209.16;5066913;28;20334;-71
2023/08/23 02:58:04;;;;;;;14.70;12.27;;;;;;;23.27;65.80;97209.72;5066264;28;20195;-72
2023/08/23 03:00:31;;;;;;;14.60;11.47;;;;;;;23.49;65.02;97212.06;5068409;28;20200;-72
2023/08/23 03:02:58;;;;;;;14.03;11.23;;;;;;;23.35;65.26;97196.66;5066861;28;20195;-78
2023/08/23 03:05:25;;;;;;;15.97;11.73;;;;;;;23.35;64.64;97205.44;5050051;28;20678;-79
2023/08/23 03:07:52;;;;;;;14.60;11.13;;;;;;;23.11;65.58;97185.72;5066523;28;20271;-72
2023/08/23 03:10:20;;;;;;;14.70;11.47;;;;;;;23.10;65.60;97211.31;5065199;28;20185;-71
2023/08/23 03:12:47;;;;;;;17.50;12.27;;;;;;;22.99;66.44;97205.38;5066366;28;20195;-71
2023/08/23 03:15:14;;;;;;;15.90;12.10;;;;;;;22.90;66.11;97209.69;5065011;28;20855;-74
2023/08/23 03:17:41;;;;;;;14.67;11.43;;;;;;;22.75;66.57;97207.63;5067376;28;20209;-71
2023/08/23 03:20:08;;;;;;;16.97;11.40;;;;;;;22.71;66.38;97179.84;5062679;28;20227;-71
2023/08/23 03:22:35;;;;;;;14.03;12.17;;;;;;;22.69;66.48;97208.22;5060156;28;20254;-70
2023/08/23 03:25:02;;;;;;;14.13;12.07;;;;;;;22.79;66.38;97209.88;5045956;28;20193;-69
2023/08/23 03:27:30;;;;;;;13.17;11.00;;;;;;;22.55;67.10;97210.25;5050231;28;20652;-72
2023/08/23 03:29:57;;;;;;;16.10;11.70;;;;;;;22.38;67.41;97189.81;5066472;28;20230;-71
2023/08/23 03:32:25;;;;;;;14.87;12.33;;;;;;;22.36;67.23;97183.84;5064601;28;20193;-79
2023/08/23 03:34:52;;;;;;;13.03;11.57;;;;;;;22.47;67.40;97210.13;5055396;28;21062;-72
2023/08/23 03:37:19;;;;;;;15.50;12.67;;;;;;;22.34;67.88;97209.56;5064278;28;20223;-71
2023/08/23 03:39:47;;;;;;;15.63;12.63;;;;;;;22.38;67.83;97221.50;5061893;28;20207;-71
2023/08/23 03:42:17;;;;;;;15.50;12.57;;;;;;;22.34;67.56;97206.91;5054413;28;20207;-70
2023/08/23 03:44:44;;;;;;;16.17;12.53;;;;;;;22.40;67.47;97208.19;5044862;28;20664;-71
2023/08/23 03:47:11;;;;;;;15.87;12.40;;;;;;;22.57;67.32;97213.59;5045961;28;20227;-70
2023/08/23 03:49:39;;;;;;;18.77;14.50;;;;;;;22.88;66.20;97218.72;5045781;28;20197;-73
2023/08/23 03:52:06;;;;;;;15.00;13.27;;;;;;;23.02;65.12;97205.09;5046060;28;20201;-71
2023/08/23 03:54:34;;;;;;;15.97;12.80;;;;;;;23.09;65.29;97208.81;5044183;28;20760;-71
2023/08/23 03:57:01;;;;;;;19.67;12.63;;;;;;;23.29;64.86;97205.13;5047031;28;20217;-73
2023/08/23 03:59:28;;;;;;;15.83;12.47;;;;;;;23.44;64.26;97211.66;5045330;28;20189;-71
2023/08/23 04:01:55;;;;;;;16.40;12.13;;;;;;;23.42;64.67;97205.69;5049068;28;20845;-70
2023/08/23 04:04:22;;;;;;;16.37;12.13;;;;;;;23.43;63.84;97188.84;5083321;28;20191;-71
2023/08/23 04:06:49;;;;;;;13.57;12.00;;;;;;;23.35;64.53;97196.66;5048341;28;20183;-73
2023/08/23 04:09:17;;;;;;;12.67;11.10;;;;;;;23.69;63.52;97197.78;5051172;28;20602;-85
2023/08/23 04:11:44;;;;;;;16.57;11.60;;;;;;;23.94;62.31;97204.19;5050053;28;20705;-70
2023/08/23 04:14:11;;;;;;;13.77;11.83;;;;;;;23.64;63.21;97202.66;5068756;28;20251;-71
2023/08/23 04:16:39;;;;;;;14.23;12.27;;;;;;;23.54;63.27;97193.94;5052034;28;20187;-70
2023/08/23 04:19:06;;;;;;;13.33;10.93;;;;;;;23.42;63.75;97197.75;5069278;28;20187;-71
2023/08/23 04:21:34;;;;;;;16.27;10.87;;;;;;;23.51;64.04;97207.47;5069644;28;20204;-70
2023/08/23 04:24:01;;;;;;;13.87;11.33;;;;;;;23.64;63.63;97196.56;5067659;28;20196;-70
2023/08/23 04:26:29;;;;;;;15.80;11.50;;;;;;;23.63;63.37;97201.00;5069481;28;20197;-69
2023/08/23 04:28:56;;;;;;;12.60;10.73;;;;;;;23.93;62.19;97191.91;5067729;28;20702;-70
2023/08/23 04:31:23;;;;;;;12.70;10.73;;;;;;;24.04;61.79;97207.63;5065073;28;20207;-72
2023/08/23 04:33:58;;;;;;;13.10;11.03;;;;;;;23.99;62.20;97199.25;5054425;28;20202;-70
2023/08/23 04:36:25;;;;;;;16.33;10.73;;;;;;;24.52;60.69;97200.19;5054008;28;20227;-70
2023/08/23 04:38:52;;;;;;;14.87;12.40;;;;;;;24.48;59.55;97161.75;5069513;28;20212;-70
2023/08/23 04:41:19;;;;;;;12.83;11.13;;;;;;;24.77;59.26;97211.84;5067690;28;20189;-72
2023/08/23 04:43:46;;;;;;;11.77;10.57;;;;;;;24.42;60.73;97198.59;5069619;28;20239;-81
2023/08/23 04:46:13;;;;;;;13.53;10.60;;;;;;;24.39;60.93;97204.16;5067511;28;20189;-70
2023/08/23 04:48:42;;;;;;;13.07;11.17;;;;;;;24.39;61.52;97212.13;5068839;28;20223;-71
2023/08/23 04:51:09;;;;;;;13.57;11.17;;;;;;;24.97;59.37;97205.34;5069495;28;20196;-71
2023/08/23 04:53:36;;;;;;;13.50;9.70;;;;;;;25.15;58.66;97203.50;5068105;28;20192;-71
2023/08/23 04:56:03;;;;;;;15.43;10.97;;;;;;;25.04;59.56;97209.03;5068840;28;20220;-71
2023/08/23 04:58:31;;;;;;;14.90;10.67;;;;;;;24.78;59.82;97192.28;5050552;28;20190;-71
2023/08/23 05:01:03;;;;;;;16.40;10.93;;;;;;;24.93;60.17;97204.00;5068671;28;20273;-71
2023/08/23 05:03:35;;;;;;;13.87;10.43;;;;;;;24.93;59.53;97204.00;5049930;28;20205;-71
2023/08/23 05:06:02;;;;;;;12.17;10.53;;;;;;;25.01;59.37;97209.38;5068586;28;20217;-72
2023/08/23 05:08:32;;;;;;;11.53;10.33;;;;;;;25.14;59.75;97201.00;5067717;28;20228;-74
2023/08/23 05:11:03;;;;;;;13.13;9.90;;;;;;;25.28;59.51;97211.88;5067037;28;20284;-73
2023/08/23 05:13:30;;;;;;;13.03;10.17;;;;;;;25.59;58.83;97213.06;5068396;28;20716;-71
2023/08/23 05:15:57;;;;;;;13.50;10.37;;;;;;;25.81;57.63;97195.72;5066787;28;20185;-71
2023/08/23 05:18:25;;;;;;;12.87;10.23;;;;;;;25.88;57.43;97206.53;5068414;28;20239;-71
2023/08/23 05:20:54;;;;;;;14.53;10.43;;;;;;;25.96;57.40;97204.75;5050576;28;20189;-75
2023/08/23 05:23:24;;;;;;;14.37;10.87;;;;;;;26.06;57.57;97209.91;5051870;28;20232;-70
2023/08/23 05:25:52;;;;;;;13.40;10.60;;;;;;;26.27;57.11;97211.16;5050990;28;20201;-75
2023/08/23 05:28:20;;;;;;;14.37;10.37;;;;;;;26.26;57.25;97221.94;5067159;28;20219;-75
2023/08/23 05:30:47;;;;;;;12.87;11.13;;;;;;;26.32;57.25;97210.66;5051630;28;20577;-77
2023/08/23 05:33:17;;;;;;;26.90;14.70;;;;;;;26.52;56.66;97212.03;5049527;28;20192;-73
2023/08/23 05:35:46;;;;;;;12.40;9.60;;;;;;;26.67;56.46;97215.69;5068052;28;20177;-71
2023/08/23 05:38:13;;;;;;;11.27;8.77;;;;;;;26.63;55.13;97193.94;5066334;28;20223;-71
2023/08/23 05:40:40;;;;;;;11.83;9.60;;;;;;;27.03;55.00;97222.38;5067753;28;20224;-71
2023/08/23 05:43:07;;;;;;;13.97;9.27;;;;;;;26.99;55.05;97223.69;5067593;28;20196;-71
2023/08/23 05:45:35;;;;;;;11.20;9.70;;;;;;;27.09;54.36;97218.19;5050120;28;20194;-73
2023/08/23 05:48:02;;;;;;;11.93;10.60;;;;;;;26.94;54.25;97223.38;5067959;28;20295;-72
2023/08/23 05:50:29;;;;;;;9.97;8.97;;;;;;;27.34;53.65;97225.19;5047699;28;20219;-77
2023/08/23 05:52:57;;;;;;;11.93;10.10;;;;;;;27.50;53.25;97222.47;5064833;28;20198;-73
2023/08/23 05:55:24;;;;;;;14.00;10.63;;;;;;;27.47;53.08;97216.66;5046209;28;20281;-72
2023/08/23 05:57:51;;;;;;;12.07;9.90;;;;;;;27.62;53.15;97204.28;5048991;28;20579;-73
2023/08/23 06:00:19;;;;;;;20.20;10.87;;;;;;;27.79;53.09;97201.41;5052876;28;20208;-80
2023/08/23 06:02:46;;;;;;;13.60;9.70;;;;;;;27.85;53.51;97207.88;5067604;28;20186;-73
2023/08/23 06:05:14;;;;;;;13.47;10.87;;;;;;;27.70;53.90;97221.06;5067275;28;20209;-77
2023/08/23 06:07:41;;;;;;;14.90;10.20;;;;;;;27.68;54.28;97220.41;5057596;28;20225;-76
2023/08/23 06:10:10;;;;;;;15.13;10.70;;;;;;;27.41;54.24;97204.06;5048493;28;20240;-74
2023/08/23 06:12:37;;;;;;;12.20;10.93;;;;;;;27.43;54.86;97215.34;5047047;28;20197;-72
2023/08/23 06:15:05;;;;;;;14.20;11.23;;;;;;;27.52;54.53;97214.31;5048331;28;20607;-74
2023/08/23 06:17:32;;;;;;;16.30;11.23;;;;;;;27.75;54.38;97220.56;5047287;28;20277;-71
2023/08/23 06:19:59;;;;;;;13.07;10.30;;;;;;;27.79;53.03;97217.38;5047665;28;20292;-72
2023/08/23 06:22:26;;;;;;;13.40;10.33;;;;;;;28.11;53.30;97208.44;5048001;28;20245;-80
2023/08/23 06:24:53;;;;;;;12.50;9.60;;;;;;;28.14;51.84;97214.25;5049237;28;20220;-75
2023/08/23 06:27:20;;;;;;;11.87;10.17;;;;;;;28.15;52.58;97210.56;5068253;28;20423;-77
2023/08/23 06:29:47;;;;;;;12.07;10.30;;;;;;;28.37;51.92;97216.13;5066922;28;20872;-71
2023/08/23 06:32:14;;;;;;;12.40;11.07;;;;;;;28.79;50.56;97219.19;5100851;28;20287;-77
2023/08/23 06:34:41;;;;;;;12.10;10.33;;;;;;;29.12;50.55;97222.41;5067672;28;20217;-77
2023/08/23 06:37:08;;;;;;;11.73;9.97;;;;;;;29.19;49.53;97215.34;5067509;28;20217;-80
2023/08/23 06:39:35;;;;;;;15.70;11.53;;;;;;;29.41;48.91;97227.81;5067751;28;20185;-73
2023/08/23 06:42:02;;;;;;;13.93;10.23;;;;;;;29.66;47.95;97222.03;5066066;28;20185;-80
2023/08/23 06:44:31;;;;;;;13.50;10.43;;;;;;;29.93;47.40;97227.75;5066342;28;20189;-75
2023/08/23 06:46:58;;;;;;;10.97;9.50;;;;;;;30.07;47.07;97221.56;5065894;28;20181;-73
2023/08/23 06:49:25;;;;;;;15.10;10.07;;;;;;;30.20;46.27;97232.41;5067341;28;20259;-73
2023/08/23 06:51:52;;;;;;;17.13;10.93;;;;;;;30.06;46.52;97226.09;5064413;28;20288;-75
2023/08/23 06:54:19;;;;;;;11.30;9.67;;;;;;;30.40;46.53;97231.66;5067100;28;20189;-75
2023/08/23 06:56:46;;;;;;;12.57;9.40;;;;;;;30.42;45.62;97232.28;5066715;28;20208;-79
2023/08/23 06:59:13;;;;;;;12.93;10.20;;;;;;;30.60;45.95;97231.03;5066093;28;20193;-73
2023/08/23 07:01:41;;;;;;;14.87;9.63;;;;;;;30.73;45.10;97228.50;5067135;28;20223;-80
2023/08/23 07:04:08;;;;;;;12.80;9.23;;;;;;;30.53;44.92;97213.09;5065954;28;20200;-77
2023/08/23 07:06:35;;;;;;;12.87;8.93;;;;;;;30.79;45.39;97230.41;5068445;28;20215;-72
2023/08/23 07:09:03;;;;;;;12.40;9.10;;;;;;;30.89;44.63;97231.75;5063918;28;20224;-73
2023/08/23 07:11:30;;;;;;;11.75;8.80;;;;;;;31.07;43.26;97217.94;5045862;28;20209;-71
2023/08/23 07:13:57;;;;;;;17.63;10.18;;;;;;;31.27;43.34;97226.94;5046665;28;20189;-74
2023/08/23 07:16:24;;;;;;;11.75;9.18;;;;;;;31.38;42.91;97229.09;5046352;28;20224;-78
2023/08/23 07:18:52;;;;;;;17.90;10.70;;;;;;;31.49;42.18;97225.06;5047061;28;20196;-72
2023/08/23 07:21:19;;;;;;;12.18;9.27;;;;;;;31.62;43.54;97227.81;5044729;28;20665;-73
2023/08/23 07:23:46;;;;;;;16.50;9.10;;;;;;;31.69;42.32;97226.84;5046541;28;20247;-79
2023/08/23 07:26:13;;;;;;;12.95;9.93;;;;;;;31.67;42.28;97212.84;5043729;28;20741;-74
2023/08/23 07:28:40;;;;;;;9.70;8.40;;;;;;;31.41;43.03;97196.59;5045375;28;20624;-73
2023/08/23 07:31:07;;;;;;;14.35;9.35;;;;;;;31.56;41.93;97216.06;5046012;28;20197;-75
2023/08/23 07:33:34;;;;;;;15.20;9.50;;;;;;;31.68;41.57;97214.47;5045971;28;20236;-73
2023/08/23 07:36:02;;;;;;;8.73;7.93;;;;;;;31.81;41.27;97211.88;5046471;28;20302;-74
2023/08/23 07:38:32;;;;;;;12.38;8.15;;;;;;;31.84;41.78;97208.78;5044860;28;20178;-72
2023/08/23 07:41:02;;;;;;;11.55;8.40;;;;;;;31.77;41.85;97178.47;5046809;28;20284;-73
2023/08/23 07:43:30;;;;;;;9.75;7.43;;;;;;;31.93;40.32;97186.19;5043399;28;20197;-73
2023/08/23 07:45:59;;;;;;;11.05;8.43;;;;;;;32.19;40.54;97208.78;5046711;28;20190;-72
2023/08/23 07:48:27;;;;;;;10.65;8.40;;;;;;;32.41;39.87;97202.22;5045970;28;20271;-74
2023/08/23 07:50:56;;;;;;;10.13;8.05;;;;;;;32.47;39.38;97199.59;5045403;28;20194;-73
2023/08/23 07:53:23;;;;;;;11.00;8.27;;;;;;;32.48;39.99;97195.06;5046338;28;20822;-72
2023/08/23 07:55:50;;;;;;;10.70;6.72;;;;;;;32.52;38.21;97201.69;5044707;28;20271;-72
2023/08/23 07:58:17;;;;;;;10.52;7.57;;;;;;;32.64;38.29;97202.72;5046626;28;20193;-77
2023/08/23 08:00:44;;;;;;;8.95;7.68;;;;;;;32.46;38.09;97170.31;5044492;28;20190;-73
2023/08/23 08:03:12;;;;;;;15.65;8.40;;;;;;;32.78;38.22;97215.97;5045912;28;20190;-77
2023/08/23 08:05:39;;;;;;;14.20;7.75;;;;;;;32.81;38.22;97209.34;5044228;28;20186;-73
2023/08/23 08:08:07;;;;;;;9.45;6.65;;;;;;;32.97;37.47;97192.88;5044328;28;20240;-73
2023/08/23 08:10:36;;;;;;;10.30;7.28;;;;;;;32.76;36.92;97195.72;5046278;28;20206;-81
2023/08/23 08:13:04;;;;;;;8.63;6.28;;;;;;;32.65;37.34;97196.31;5044787;28;20298;-73
2023/08/23 08:15:31;;;;;;;7.63;6.72;;;;;;;32.63;37.47;97191.16;5046241;28;20263;-77
2023/08/23 08:17:59;;;;;;;8.82;6.93;;;;;;;32.83;36.49;97186.66;5044611;28;20248;-74
2023/08/23 08:20:26;;;;;;;6.90;6.20;;;;;;;32.64;37.04;97178.59;5044902;28;20216;-72
2023/08/23 08:22:53;;;;;;;7.60;6.40;;;;;;;32.76;36.02;97198.41;5027305;28;20248;-73
2023/08/23 08:25:20;;;;;;;7.72;6.35;;;;;;;32.89;35.62;97198.44;5045484;28;20189;-75
2023/08/23 08:27:47;;;;;;;10.32;6.75;;;;;;;33.12;35.21;97198.84;5045985;28;20277;-74
2023/08/23 08:30:15;;;;;;;7.13;5.63;;;;;;;33.09;35.17;97203.81;5043534;28;20623;-73
2023/08/23 08:32:43;;;;;;;7.43;6.55;;;;;;;33.21;34.47;97197.63;5046389;28;20282;-75
2023/08/23 08:35:10;;;;;;;7.70;6.60;;;;;;;33.08;35.06;97173.47;5061897;28;20698;-73
2023/08/23 08:37:37;;;;;;;6.47;5.75;;;;;;;33.17;34.38;97191.03;5066212;28;20569;-77
2023/08/23 08:40:05;;;;;;;6.28;5.68;;;;;;;33.05;34.18;97203.41;5065336;28;20284;-77
2023/08/23 08:42:32;;;;;;;8.07;6.10;;;;;;;32.99;34.95;97198.03;5065625;28;20186;-73
2023/08/23 08:44:59;;;;;;;12.77;6.97;;;;;;;33.10;35.35;97186.69;5064887;28;20581;-73
2023/08/23 08:47:27;;;;;;;17.13;6.93;;;;;;;33.36;35.18;97194.72;5064494;28;20196;-77
2023/08/23 08:49:54;;;;;;;10.07;7.07;;;;;;;33.49;35.69;97182.13;5069413;28;20308;-74
2023/08/23 08:52:25;;;;;;;9.57;7.45;;;;;;;33.78;34.42;97193.44;5048828;28;20201;-76
2023/08/23 08:54:53;;;;;;;8.15;6.30;;;;;;;33.74;34.03;97173.38;5069519;28;20181;-76
2023/08/23 08:57:22;;;;;;;8.95;6.13;;;;;;;33.61;33.59;97175.06;5068061;28;20221;-74
2023/08/23 08:59:51;;;;;;;6.53;5.80;;;;;;;33.67;32.65;97186.84;5067551;28;20284;-72
2023/08/23 09:02:18;;;;;;;9.15;5.70;;;;;;;33.70;32.53;97191.78;5068339;28;20267;-72
2023/08/23 09:04:46;;;;;;;7.30;6.25;;;;;;;33.76;32.59;97179.38;5067959;28;20189;-73
2023/08/23 09:07:14;;;;;;;8.70;6.10;;;;;;;33.66;33.40;97179.81;5069438;28;20185;-73
2023/08/23 09:09:43;;;;;;;9.60;7.38;;;;;;;33.77;33.15;97175.63;5067757;28;20220;-72
2023/08/23 09:12:10;;;;;;;8.95;6.15;;;;;;;33.94;32.95;97179.50;5068300;28;20649;-75
2023/08/23 09:14:41;;;;;;;8.48;6.18;;;;;;;33.97;32.94;97165.63;5068421;28;20673;-80
2023/08/23 09:17:10;;;;;;;7.25;6.45;;;;;;;34.07;33.04;97166.03;5068623;28;20238;-76
2023/08/23 09:19:40;;;;;;;11.27;6.95;;;;;;;33.95;33.26;97171.22;5069500;28;20839;-72
2023/08/23 09:22:07;;;;;;;7.97;7.18;;;;;;;33.75;33.30;97140.09;5067574;28;20193;-75
2023/08/23 09:24:41;;;;;;;7.60;6.18;;;;;;;34.00;33.15;97159.88;5068992;28;20265;-75
2023/08/23 09:27:09;;;;;;;10.60;6.82;;;;;;;34.30;32.80;97159.09;5067207;28;21052;-73
2023/08/23 09:29:53;;;;;;;9.35;6.32;;;;;;;34.29;32.73;97156.63;5068636;28;20217;-74
2023/08/23 09:32:20;;;;;;;6.75;6.00;;;;;;;34.32;32.40;97148.09;5068097;28;20182;-79
2023/08/23 09:34:48;;;;;;;8.70;6.63;;;;;;;34.36;32.88;97149.31;5066383;28;20186;-72
2023/08/23 09:37:17;;;;;;;6.32;5.72;;;;;;;34.41;32.15;97146.81;5067224;28;20761;-73
2023/08/23 09:39:45;;;;;;;7.15;6.45;;;;;;;33.92;31.67;97072.22;5067273;28;20201;-77
2023/08/23 09:42:15;;;;;;;6.85;5.70;;;;;;;34.21;32.02;97140.75;5068747;28;20193;-75
2023/08/23 09:44:43;;;;;;;6.88;5.97;;;;;;;34.33;31.88;97125.56;5067281;28;20189;-75
2023/08/23 09:47:15;;;;;;;7.40;6.65;;;;;;;34.48;32.22;97138.72;5068019;28;20182;-75
2023/08/23 09:49:44;;;;;;;8.57;6.18;;;;;;;34.36;32.41;97135.88;5068429;28;20650;-74
2023/08/23 09:52:11;;;;;;;8.23;6.32;;;;;;;34.36;31.22;97127.81;5067205;28;20177;-76
2023/08/23 09:54:54;;;;;;;7.53;6.50;;;;;;;34.61;31.55;97136.78;5068630;28;20207;-78
2023/08/23 09:57:38;;;;;;;12.45;6.32;;;;;;;34.78;31.56;97137.06;5034847;28;20673;-79
2023/08/23 10:00:06;;;;;;;7.38;6.07;;;;;;;34.58;31.79;97125.63;5068371;28;20194;-77
2023/08/23 10:02:34;;;;;;;9.68;6.63;;;;;;;34.25;32.11;97132.00;5068253;28;20193;-79
2023/08/23 10:05:04;;;;;;;7.38;6.65;;;;;;;34.48;31.55;97115.28;5067331;28;20284;-78
2023/08/23 10:07:33;;;;;;;6.28;5.68;;;;;;;34.68;30.63;97129.47;5066995;28;20693;-74
2023/08/23 10:10:01;;;;;;;8.80;6.63;;;;;;;34.72;31.46;97133.38;5066303;28;20592;-75
2023/08/23 10:12:30;;;;;;;12.57;6.43;;;;;;;34.73;31.65;97124.25;5068300;28;20193;-77
2023/08/23 10:15:02;;;;;;;7.40;6.20;;;;;;;34.63;31.43;97113.16;5066699;28;20193;-81
2023/08/23 10:17:30;;;;;;;9.68;6.10;;;;;;;34.52;31.48;97105.78;5068072;28;20212;-81
2023/08/23 10:20:08;;;;;;;8.70;6.25;;;;;;;33.85;31.82;97086.69;5067662;28;20196;-75
2023/08/23 10:22:37;;;;;;;9.50;6.15;;;;;;;33.84;32.59;97114.63;5066909;28;20181;-75
2023/08/23 10:25:16;;;;;;;7.03;6.32;;;;;;;33.59;32.90;97109.16;5067099;28;20219;-82
2023/08/23 10:27:46;;;;;;;7.78;6.35;;;;;;;33.34;32.83;97100.09;5066697;28;20585;-76
2023/08/23 10:30:21;;;;;;;9.60;6.28;;;;;;;33.12;33.14;97102.22;5068221;28;20270;-76
2023/08/23 10:32:48;;;;;;;8.50;5.88;;;;;;;33.37;33.15;97111.25;5067706;28;20597;-75
2023/08/23 10:35:21;;;;;;;8.35;6.45;;;;;;;33.20;33.73;97112.72;5067283;28;20190;-73
2023/08/23 10:37:48;;;;;;;9.05;6.03;;;;;;;32.83;33.54;97057.00;5068444;28;20220;-74
2023/08/23 10:40:18;;;;;;;11.60;6.95;;;;;;;32.89;34.18;97107.19;5066967;28;20684;-73
2023/08/23 10:42:47;;;;;;;7.80;6.15;;;;;;;32.85;34.59;97114.00;5066771;28;20573;-78
2023/08/23 10:45:16;;;;;;;7.80;6.30;;;;;;;32.60;34.75;97104.94;5066371;28;20181;-74
2023/08/23 10:47:44;;;;;;;6.80;6.18;;;;;;;32.78;34.54;97114.00;5067674;28;20216;-77
2023/08/23 10:50:12;;;;;;;9.70;6.53;;;;;;;32.67;34.74;97103.06;5067121;28;20217;-78
2023/08/23 10:52:39;;;;;;;8.45;6.88;;;;;;;32.63;34.76;97065.09;5066127;28;20197;-79
2023/08/23 10:55:07;;;;;;;9.35;7.50;;;;;;;33.01;34.12;97100.19;5067265;28;20193;-73
2023/08/23 10:57:34;;;;;;;8.32;6.13;;;;;;;33.16;33.88;97099.94;5065164;28;20190;-74
2023/08/23 11:00:03;;;;;;;9.80;6.28;;;;;;;32.84;34.69;97104.28;5067053;28;20691;-73
2023/08/23 11:02:32;;;;;;;6.97;6.15;;;;;;;32.69;34.63;97099.13;5066095;28;20221;-83
2023/08/23 11:05:00;;;;;;;8.95;6.10;;;;;;;32.70;34.81;97100.81;5065658;28;20569;-78
2023/08/23 11:07:28;;;;;;;7.10;5.82;;;;;;;32.67;34.58;97081.59;5048824;28;20294;-83
2023/08/23 11:09:55;;;;;;;7.03;6.40;;;;;;;32.82;33.84;97074.16;5065468;28;20235;-80
2023/08/23 11:12:23;;;;;;;7.32;6.53;;;;;;;32.99;34.16;97080.78;5049509;28;20205;-79
2023/08/23 11:14:50;;;;;;;7.50;6.80;;;;;;;33.20;34.19;97093.13;5064085;28;20284;-82
2023/08/23 11:17:17;;;;;;;10.38;6.38;;;;;;;33.05;33.71;97084.47;5067068;28;20665;-81
2023/08/23 11:19:45;;;;;;;8.27;7.45;;;;;;;33.25;33.61;97077.19;5064145;28;20582;-81
2023/08/23 11:22:12;;;;;;;7.55;6.75;;;;;;;33.21;33.75;97043.75;5067241;28;20200;-84
2023/08/23 11:24:39;;;;;;;7.07;5.82;;;;;;;33.49;33.17;97066.59;5065426;28;20196;-87
2023/08/23 11:27:13;;;;;;;7.53;6.72;;;;;;;33.64;32.42;97069.84;5068780;28;20203;-78